Time;durP1;ratioP1;P1;durP2;ratioP2;P2;SDS_P1;SDS_P2;PMS_P1;PMS_P2;Temp;Humidity;BMP_temperature;BMP_pressure;BME280_temperature;BME280_humidity;BME280_pressure;Samples;Min_cycle;Max_cycle;Signal;HPM_P1;HPM_P2
2022/09/05 00:02:01;;;;;;;26.55;9.55;;;;;;;17.00;100.00;101323.81;5093381;28;20093;-88
2022/09/05 00:05:02;;;;;;;23.92;10.13;;;;;;;17.27;100.00;101353.19;5070544;28;20135;-87
2022/09/05 00:07:46;;;;;;;32.30;12.20;;;;;;;17.24;100.00;101358.63;5094286;28;20048;-87
2022/09/05 00:10:28;;;;;;;27.40;11.20;;;;;;;17.22;100.00;101363.16;5091635;28;20107;-88
2022/09/05 00:14:05;;;;;;;25.30;11.02;;;;;;;17.24;100.00;101358.63;5077178;28;20056;-88
2022/09/05 00:17:05;;;;;;;44.25;12.73;;;;;;;17.15;100.00;101332.69;4973233;28;20043;-88
2022/09/05 00:19:38;;;;;;;30.92;11.23;;;;;;;17.27;100.00;101343.44;5069739;28;20052;-88
2022/09/05 00:22:41;;;;;;;22.85;10.50;;;;;;;17.15;100.00;101315.00;5077315;28;20377;-88
2022/09/05 00:25:56;;;;;;;32.07;13.40;;;;;;;17.35;100.00;101319.22;5080695;28;20044;-88
2022/09/05 00:28:51;;;;;;;33.63;13.90;;;;;;;17.36;100.00;101323.53;5062002;28;20070;-88
2022/09/05 00:31:17;;;;;;;35.25;15.05;;;;;;;17.04;100.00;101275.94;5093984;28;20051;-88
2022/09/05 00:34:13;;;;;;;24.60;12.23;;;;;;;17.30;100.00;101328.31;5078955;28;20063;-89
2022/09/05 00:36:53;;;;;;;32.72;13.48;;;;;;;17.29;100.00;101310.75;5093076;28;20043;-89
2022/09/05 00:39:28;;;;;;;34.67;17.00;;;;;;;17.17;100.00;101302.56;5069609;28;20044;-88
2022/09/05 00:41:59;;;;;;;33.60;15.35;;;;;;;17.19;100.00;101316.56;5069575;28;20063;-89
2022/09/05 00:44:31;;;;;;;34.08;13.45;;;;;;;17.06;100.00;101286.44;5064901;28;20058;-88
2022/09/05 00:47:32;;;;;;;31.73;13.48;;;;;;;17.05;100.00;101313.81;5071802;28;20497;-88
2022/09/05 00:50:05;;;;;;;36.13;18.00;;;;;;;16.71;100.00;101257.47;5093179;28;20058;-89
2022/09/05 00:52:35;;;;;;;;;;;;;;;17.26;100.00;101322.34;5075618;28;20044;-88
2022/09/05 00:55:35;;;;;;;28.15;12.48;;;;;;;17.10;100.00;101295.06;5068573;28;20293;-88
2022/09/05 00:58:26;;;;;;;38.13;16.73;;;;;;;17.16;100.00;101323.84;5070084;28;20070;-88
2022/09/05 01:01:02;;;;;;;28.15;12.05;;;;;;;16.88;100.00;101254.78;5082486;28;20055;-89
2022/09/05 01:04:01;;;;;;;35.75;16.15;;;;;;;16.66;100.00;101283.31;5083740;28;20048;-88
2022/09/05 01:07:02;;;;;;;37.80;16.02;;;;;;;17.14;100.00;101326.56;5078853;28;20458;-87
2022/09/05 01:09:50;;;;;;;36.55;15.40;;;;;;;17.01;100.00;101328.16;5063931;28;20406;-88
2022/09/05 01:12:56;;;;;;;44.63;16.25;;;;;;;17.07;100.00;101327.84;5092670;28;20463;-88
2022/09/05 01:15:39;;;;;;;33.58;12.60;;;;;;;17.08;100.00;101313.66;5054079;28;20140;-88
2022/09/05 01:18:14;;;;;;;;;;;;;;;17.09;100.00;101320.66;5087360;28;20130;-87
2022/09/05 01:20:53;;;;;;;59.90;16.08;;;;;;;16.93;100.00;101319.78;5064665;28;20409;-88
2022/09/05 01:23:42;;;;;;;47.25;16.63;;;;;;;16.95;100.00;101318.78;5071733;28;20407;-88
2022/09/05 01:26:24;;;;;;;37.33;16.75;;;;;;;16.90;100.00;101323.47;5067349;28;20052;-89
2022/09/05 01:28:57;;;;;;;53.38;18.27;;;;;;;16.86;100.00;101314.00;5078648;28;20044;-89
2022/09/05 01:31:46;;;;;;;42.67;15.38;;;;;;;16.94;100.00;101308.28;5100103;28;20045;-89
2022/09/05 01:34:25;;;;;;;42.83;16.20;;;;;;;16.90;100.00;101302.31;5064941;28;20048;-88
2022/09/05 01:37:17;;;;;;;44.97;15.55;;;;;;;16.89;100.00;101301.47;5081448;28;20044;-86
2022/09/05 01:40:28;;;;;;;85.97;17.73;;;;;;;16.86;100.00;101316.66;5091562;28;20379;-86
2022/09/05 01:43:01;;;;;;;76.28;19.77;;;;;;;16.77;100.00;101317.09;5082202;28;20059;-87
2022/09/05 01:45:46;;;;;;;56.15;18.20;;;;;;;16.72;100.00;101319.16;5069229;28;20413;-86
2022/09/05 01:48:51;;;;;;;59.03;14.98;;;;;;;16.77;100.00;101323.25;5058687;28;20541;-87
2022/09/05 01:51:27;;;;;;;42.30;15.23;;;;;;;16.70;100.00;101335.09;5069237;28;20044;-87
2022/09/05 01:54:23;;;;;;;39.05;12.68;;;;;;;16.83;100.00;101319.41;5077659;28;20139;-86
2022/09/05 01:57:26;;;;;;;59.03;15.55;;;;;;;16.61;100.00;101296.78;5090352;28;20060;-87
2022/09/05 01:59:56;;;;;;;57.58;14.82;;;;;;;16.79;100.00;101315.25;5065110;28;20059;-86
2022/09/05 02:02:33;;;;;;;51.22;13.90;;;;;;;16.95;100.00;101307.34;5066821;28;20054;-86
2022/09/05 02:05:24;;;;;;;43.47;13.70;;;;;;;17.05;100.00;101298.81;5084610;28;20058;-87
2022/09/05 02:08:14;;;;;;;27.45;12.82;;;;;;;16.86;100.00;101300.78;5073895;28;20048;-87
2022/09/05 02:11:07;;;;;;;29.30;10.98;;;;;;;16.92;100.00;101303.06;5073011;28;20537;-87
2022/09/05 02:13:33;;;;;;;43.73;13.50;;;;;;;16.72;100.00;101264.47;5101616;28;20070;-87
2022/09/05 02:16:09;;;;;;;30.90;11.70;;;;;;;16.92;100.00;101302.22;5081478;28;20554;-87
2022/09/05 02:18:36;;;;;;;70.82;16.63;;;;;;;16.84;100.00;101294.72;5087412;28;20397;-87
2022/09/05 02:21:10;;;;;;;26.80;10.80;;;;;;;16.92;100.00;101307.53;5067244;28;20047;-87
2022/09/05 02:23:47;;;;;;;62.67;16.08;;;;;;;16.77;100.00;101285.34;5092420;28;20081;-87
2022/09/05 02:26:57;;;;;;;42.65;12.93;;;;;;;16.80;100.00;101286.06;5073552;28;20386;-87
2022/09/05 02:29:26;;;;;;;31.67;10.60;;;;;;;16.91;100.00;101287.28;5065473;28;20059;-87
2022/09/05 02:32:21;;;;;;;45.55;11.20;;;;;;;16.76;100.00;101281.88;5074571;28;20139;-87
2022/09/05 02:35:06;;;;;;;63.22;16.50;;;;;;;16.83;100.00;101283.28;5061367;28;20044;-87
2022/09/05 02:38:10;;;;;;;44.95;16.45;;;;;;;16.84;100.00;101281.50;5070033;28;20040;-87
2022/09/05 02:41:01;;;;;;;37.15;15.05;;;;;;;16.81;100.00;101273.69;5050692;28;20059;-88
2022/09/05 02:43:58;;;;;;;57.63;21.52;;;;;;;16.81;100.00;101269.25;5077302;28;20052;-87
2022/09/05 02:46:54;;;;;;;38.33;17.30;;;;;;;16.83;100.00;101288.56;5076233;28;20047;-88
2022/09/05 02:49:30;;;;;;;41.58;19.00;;;;;;;16.82;100.00;101286.84;5073923;28;20052;-87
2022/09/05 02:52:18;;;;;;;41.83;19.02;;;;;;;16.63;100.00;101251.78;5076797;28;20118;-87
2022/09/05 02:55:15;;;;;;;38.97;19.17;;;;;;;16.83;100.00;101262.13;5069380;28;20048;-88
2022/09/05 02:58:16;;;;;;;41.25;18.98;;;;;;;16.88;100.00;101262.72;5066364;28;20049;-87
2022/09/05 03:00:50;;;;;;;48.95;20.92;;;;;;;16.92;100.00;101265.19;5064804;28;20058;-87
2022/09/05 03:03:33;;;;;;;39.50;16.42;;;;;;;17.01;100.00;101267.31;5077443;28;20052;-87
2022/09/05 03:06:34;;;;;;;37.85;16.35;;;;;;;16.94;100.00;101250.94;5091770;28;20052;-87
2022/09/05 03:09:58;;;;;;;36.60;18.75;;;;;;;16.95;100.00;101260.59;5061603;28;20048;-87
2022/09/05 03:12:49;;;;;;;39.88;18.02;;;;;;;17.00;100.00;101261.19;5012702;28;20125;-87
2022/09/05 03:15:53;;;;;;;42.78;21.30;;;;;;;16.97;100.00;101274.56;5006443;28;20622;-87
2022/09/05 03:18:22;;;;;;;;;;;;;;;17.03;100.00;101257.50;5067123;28;20040;-86
2022/09/05 03:21:33;;;;;;;32.22;14.15;;;;;;;17.01;100.00;101251.44;5092586;28;19920;-86
2022/09/05 03:24:32;;;;;;;40.03;16.33;;;;;;;16.95;100.00;101273.81;5092927;28;20500;-86
2022/09/05 03:27:35;;;;;;;39.13;17.40;;;;;;;16.93;100.00;101274.81;5065632;28;20054;-87
2022/09/05 03:30:07;;;;;;;44.88;18.83;;;;;;;16.92;100.00;101270.50;5050547;28;20044;-86
2022/09/05 03:32:47;;;;;;;47.75;18.35;;;;;;;16.77;100.00;101254.50;5071440;28;20058;-87
2022/09/05 03:35:33;;;;;;;35.50;16.40;;;;;;;17.01;100.00;101270.81;5075727;28;20056;-87
2022/09/05 03:38:18;;;;;;;39.05;18.38;;;;;;;16.97;100.00;101271.09;5074411;28;20048;-87
2022/09/05 03:41:01;;;;;;;36.38;15.57;;;;;;;16.99;100.00;101280.63;5077468;28;20051;-87
2022/09/05 03:43:49;;;;;;;44.97;19.48;;;;;;;16.92;100.00;101275.78;5064560;28;20127;-87
2022/09/05 03:46:37;;;;;;;38.83;15.77;;;;;;;16.79;100.00;101243.84;5072717;28;20054;-87
2022/09/05 03:49:20;;;;;;;29.00;14.13;;;;;;;17.03;100.00;101268.97;5077666;28;20048;-87
2022/09/05 03:52:40;;;;;;;40.72;17.10;;;;;;;16.78;100.00;101239.47;5068589;28;20051;-87
2022/09/05 03:56:01;;;;;;;41.75;16.27;;;;;;;16.91;100.00;101276.72;5062948;28;20051;-87
2022/09/05 03:59:14;;;;;;;34.03;12.63;;;;;;;16.85;100.00;101280.53;5082306;28;20043;-87
2022/09/05 04:01:46;;;;;;;33.15;12.93;;;;;;;16.89;100.00;101285.59;5050197;28;20474;-87
2022/09/05 04:04:45;;;;;;;42.55;15.75;;;;;;;16.61;100.00;101261.56;5080017;28;20051;-86
2022/09/05 04:07:37;;;;;;;32.25;13.68;;;;;;;16.58;100.00;101241.44;5084957;28;20052;-86
2022/09/05 04:10:30;;;;;;;30.45;14.13;;;;;;;16.86;100.00;101255.81;5094380;28;20051;-85
2022/09/05 04:13:18;;;;;;;36.80;13.00;;;;;;;16.87;100.00;101263.69;5094369;28;20083;-85
2022/09/05 04:15:50;;;;;;;29.58;11.38;;;;;;;16.91;100.00;101271.41;5085244;28;20040;-85
2022/09/05 04:18:52;;;;;;;32.40;12.13;;;;;;;17.08;100.00;101268.69;5075764;28;20055;-84
2022/09/05 04:21:28;;;;;;;27.45;10.40;;;;;;;16.71;100.00;101238.97;5033421;28;20063;-85
2022/09/05 04:24:11;;;;;;;34.45;12.32;;;;;;;16.96;100.00;101272.84;5076069;28;20079;-85
2022/09/05 04:27:15;;;;;;;36.38;12.73;;;;;;;17.03;100.00;101283.97;5074789;28;20481;-85
2022/09/05 04:30:23;;;;;;;43.50;12.70;;;;;;;16.88;100.00;101281.22;5064779;28;20500;-84
2022/09/05 04:33:20;;;;;;;46.72;14.15;;;;;;;16.94;100.00;101284.47;5094279;28;20458;-87
2022/09/05 04:36:22;;;;;;;33.63;11.98;;;;;;;16.77;100.00;101288.88;5078477;28;20105;-87
2022/09/05 04:39:23;;;;;;;39.22;12.43;;;;;;;16.95;100.00;101304.72;5087553;28;20556;-86
2022/09/05 04:42:16;;;;;;;31.85;11.32;;;;;;;17.01;100.00;101283.19;5084171;28;20567;-85
2022/09/05 04:45:06;;;;;;;35.10;11.52;;;;;;;16.94;100.00;101284.47;5057738;28;20048;-85
2022/09/05 04:47:42;;;;;;;27.60;10.00;;;;;;;17.07;100.00;101283.72;5069401;28;20046;-86
2022/09/05 04:50:16;;;;;;;34.00;10.35;;;;;;;16.92;100.00;101259.91;5058975;28;20048;-86
2022/09/05 04:53:03;;;;;;;35.95;11.50;;;;;;;16.98;100.00;101289.53;5073844;28;20066;-86
2022/09/05 04:56:08;;;;;;;38.25;13.45;;;;;;;16.89;100.00;101275.00;5075386;28;20530;-85
2022/09/05 04:58:46;;;;;;;36.03;13.48;;;;;;;16.81;100.00;101301.00;5048712;28;20054;-85
2022/09/05 05:01:53;;;;;;;38.95;12.55;;;;;;;16.87;100.00;101284.84;5079244;28;20044;-84
2022/09/05 05:04:40;;;;;;;37.05;10.93;;;;;;;16.95;100.00;101279.09;5084912;28;20055;-85
2022/09/05 05:07:56;;;;;;;32.67;10.88;;;;;;;17.13;100.00;101282.50;5077339;28;20059;-85
2022/09/05 05:10:32;;;;;;;30.70;10.02;;;;;;;17.17;100.00;101281.38;5073183;28;20131;-86
2022/09/05 05:13:28;;;;;;;30.17;10.02;;;;;;;16.89;100.00;101252.97;5072301;28;20043;-84
2022/09/05 05:16:47;;;;;;;33.63;12.60;;;;;;;17.15;100.00;101282.41;5070186;28;20402;-84
2022/09/05 05:19:51;;;;;;;44.50;13.43;;;;;;;16.78;100.00;101226.25;5081416;28;20578;-84
2022/09/05 05:22:50;;;;;;;36.55;15.23;;;;;;;17.13;100.00;101273.72;5071984;28;20052;-84
2022/09/05 05:25:17;;;;;;;49.85;14.98;;;;;;;17.13;100.00;101276.38;5067334;28;20048;-84
2022/09/05 05:28:09;;;;;;;37.25;13.68;;;;;;;17.18;100.00;101267.22;5081671;28;20053;-85
2022/09/05 05:30:52;;;;;;;42.05;15.32;;;;;;;16.88;100.00;101264.53;5070305;28;20056;-84
2022/09/05 05:33:36;;;;;;;39.53;13.90;;;;;;;17.16;100.00;101286.78;5070840;28;20048;-84
2022/09/05 05:36:09;;;;;;;33.60;15.40;;;;;;;16.99;100.00;101248.03;5067861;28;20057;-83
2022/09/05 05:38:53;;;;;;;36.13;13.85;;;;;;;17.07;100.00;101259.06;5070163;28;20047;-85
2022/09/05 05:41:39;;;;;;;26.97;11.53;;;;;;;17.12;100.00;101264.06;5088991;28;20058;-85
2022/09/05 05:44:18;;;;;;;31.08;10.32;;;;;;;17.07;100.00;101254.59;5090848;28;20231;-85
2022/09/05 05:46:57;;;;;;;27.63;10.60;;;;;;;17.10;100.00;101250.91;5086677;28;20106;-85
2022/09/05 05:49:43;;;;;;;31.45;12.70;;;;;;;16.88;100.00;101216.91;5090627;28;20052;-84
2022/09/05 05:52:25;;;;;;;30.23;10.95;;;;;;;17.23;100.00;101264.31;5069486;28;20059;-84
2022/09/05 05:55:13;;;;;;;28.17;10.70;;;;;;;17.13;100.00;101257.84;5072778;28;20075;-85
2022/09/05 05:58:36;;;;;;;31.83;11.20;;;;;;;17.11;100.00;101267.66;5067440;28;20040;-86
2022/09/05 06:01:25;;;;;;;30.63;10.68;;;;;;;17.04;100.00;101253.94;5073347;28;20447;-85
2022/09/05 06:04:22;;;;;;;35.75;12.07;;;;;;;17.09;100.00;101283.63;5068572;28;20055;-85
2022/09/05 06:06:51;;;;;;;31.70;10.90;;;;;;;17.13;100.00;101277.22;5062516;28;20043;-84
2022/09/05 06:09:43;;;;;;;40.92;12.00;;;;;;;17.20;100.00;101283.03;5073728;28;20048;-85
2022/09/05 06:12:48;;;;;;;45.35;12.55;;;;;;;17.19;100.00;101290.13;5076903;28;20048;-85
2022/09/05 06:15:56;;;;;;;42.13;12.43;;;;;;;17.18;100.00;101290.19;5082207;28;20047;-85
2022/09/05 06:18:46;;;;;;;37.30;11.87;;;;;;;17.48;100.00;101287.59;5075300;28;20044;-85
2022/09/05 06:21:50;;;;;;;46.58;13.10;;;;;;;17.50;100.00;101295.44;5064747;28;20375;-84
2022/09/05 06:24:56;;;;;;;39.53;11.48;;;;;;;17.51;100.00;101292.72;5080585;28;20186;-84
2022/09/05 06:28:02;;;;;;;29.88;10.93;;;;;;;17.52;100.00;101309.44;5070316;28;20071;-85
2022/09/05 06:31:22;;;;;;;36.25;11.80;;;;;;;17.15;100.00;101266.56;5076538;28;20101;-86
2022/09/05 06:34:55;;;;;;;33.72;11.55;;;;;;;17.38;100.00;101297.84;5084390;28;20117;-86
2022/09/05 06:37:54;;;;;;;32.67;10.40;;;;;;;17.39;100.00;101262.50;4997997;28;20051;-86
2022/09/05 06:40:28;;;;;;;33.90;11.95;;;;;;;17.07;100.00;101237.91;5064751;28;20058;-85
2022/09/05 06:43:03;;;;;;;42.60;13.00;;;;;;;17.40;100.00;101287.16;5089750;28;20463;-86
2022/09/05 06:46:01;;;;;;;34.45;12.27;;;;;;;17.19;100.00;101263.66;5085186;28;20542;-86
2022/09/05 06:48:28;;;;;;;37.30;12.30;;;;;;;17.21;100.00;101256.47;5081349;28;20072;-84
2022/09/05 06:51:52;;;;;;;34.22;11.77;;;;;;;17.49;100.00;101310.44;5093427;28;20059;-85
2022/09/05 06:55:18;;;;;;;37.20;10.90;;;;;;;17.61;100.00;101255.94;5083449;28;20048;-84
2022/09/05 06:58:06;;;;;;;28.48;11.25;;;;;;;17.61;100.00;101282.41;5067605;28;20138;-85
2022/09/05 07:00:33;;;;;;;35.55;11.40;;;;;;;17.58;100.00;101287.88;5055872;28;20059;-85
2022/09/05 07:03:29;;;;;;;27.13;10.57;;;;;;;17.42;100.00;101274.69;5073624;28;20049;-85
2022/09/05 07:06:06;;;;;;;26.13;10.13;;;;;;;17.72;100.00;101261.44;5072987;28;20135;-86
2022/09/05 07:09:02;;;;;;;33.80;10.65;;;;;;;18.09;100.00;101267.22;5065799;28;20040;-86
2022/09/05 07:12:07;;;;;;;30.95;12.90;;;;;;;17.69;100.00;101280.19;5087585;28;20054;-86
2022/09/05 07:14:40;;;;;;;33.17;11.95;;;;;;;17.62;100.00;101279.69;5099421;28;20062;-85
2022/09/05 07:17:23;;;;;;;30.60;11.10;;;;;;;17.73;100.00;101275.56;5071274;28;20049;-85
2022/09/05 07:19:58;;;;;;;36.80;12.05;;;;;;;17.45;100.00;101266.56;5055200;28;20500;-86
2022/09/05 07:22:35;;;;;;;38.63;12.93;;;;;;;17.91;100.00;101294.84;5073992;28;20055;-85
2022/09/05 07:25:24;;;;;;;28.30;10.25;;;;;;;17.57;100.00;101271.16;5074769;28;20056;-85
2022/09/05 07:28:11;;;;;;;28.08;11.77;;;;;;;17.68;100.00;101267.03;5067211;28;20123;-85
2022/09/05 07:31:05;;;;;;;;;;;;;;;17.94;100.00;101287.56;5079520;28;20052;-85
2022/09/05 07:33:36;;;;;;;36.03;12.25;;;;;;;17.97;100.00;101294.44;5074365;28;19920;-85
2022/09/05 07:36:08;;;;;;;30.08;12.50;;;;;;;17.81;100.00;101263.56;5073114;28;20047;-85
2022/09/05 07:38:37;;;;;;;23.95;10.10;;;;;;;18.01;100.00;101272.16;5071437;28;20055;-86
2022/09/05 07:41:28;;;;;;;25.73;11.27;;;;;;;17.78;100.00;101300.81;5068274;28;20083;-86
2022/09/05 07:44:04;;;;;;;30.63;10.43;;;;;;;17.90;100.00;101285.16;5093829;28;20122;-85
2022/09/05 07:46:35;;;;;;;29.23;10.68;;;;;;;17.95;100.00;101302.50;5065569;28;20056;-86
2022/09/05 07:49:03;;;;;;;32.83;12.05;;;;;;;17.88;100.00;101277.31;5076114;28;20054;-86
2022/09/05 07:51:34;;;;;;;27.63;9.75;;;;;;;18.12;100.00;101272.34;5078203;28;20750;-86
2022/09/05 07:54:31;;;;;;;24.05;9.77;;;;;;;18.55;100.00;101263.53;5080755;28;20047;-86
2022/09/05 07:57:30;;;;;;;29.33;11.27;;;;;;;18.46;100.00;101272.91;5076258;28;20555;-87
2022/09/05 08:00:18;;;;;;;24.67;8.95;;;;;;;18.55;100.00;101280.28;5093549;28;20420;-85
2022/09/05 08:03:06;;;;;;;35.78;12.80;;;;;;;18.54;100.00;101259.19;5080395;28;20106;-86
2022/09/05 08:05:39;;;;;;;34.80;12.88;;;;;;;17.71;100.00;101233.28;5075692;28;20054;-86
2022/09/05 08:08:12;;;;;;;29.20;9.50;;;;;;;17.90;100.00;101245.44;5092792;28;20045;-85
2022/09/05 08:10:48;;;;;;;27.88;10.15;;;;;;;18.16;100.00;101288.91;5077413;28;20127;-85
2022/09/05 08:13:44;;;;;;;27.55;9.65;;;;;;;17.97;100.00;101284.72;5080147;28;20051;-85
2022/09/05 08:16:16;;;;;;;30.63;12.50;;;;;;;17.80;100.00;101268.97;5095157;28;20563;-86
2022/09/05 08:18:54;;;;;;;36.28;12.88;;;;;;;17.58;100.00;101262.28;5074212;28;20093;-86
2022/09/05 08:21:53;;;;;;;26.98;9.27;;;;;;;18.07;100.00;101287.66;5077917;28;20076;-87
2022/09/05 08:24:35;;;;;;;29.10;11.68;;;;;;;17.91;100.00;101273.63;5053327;28;20055;-87
2022/09/05 08:27:17;;;;;;;33.00;15.13;;;;;;;17.78;100.00;101268.19;5095306;28;20485;-87
2022/09/05 08:29:52;;;;;;;25.55;10.43;;;;;;;18.08;100.00;101318.53;5067066;28;20476;-87
2022/09/05 08:32:55;;;;;;;42.42;14.52;;;;;;;18.08;100.00;101307.06;5075940;28;20052;-88
2022/09/05 08:36:14;;;;;;;25.13;10.10;;;;;;;17.83;100.00;101260.84;5062788;28;20048;-87
2022/09/05 08:38:43;;;;;;;31.17;11.15;;;;;;;17.99;100.00;101285.47;5058563;28;20470;-86
2022/09/05 08:41:27;;;;;;;31.48;13.02;;;;;;;17.87;100.00;101250.94;5087407;28;20075;-87
2022/09/05 08:44:32;;;;;;;28.08;9.63;;;;;;;18.09;100.00;101255.78;5077084;28;20051;-88
2022/09/05 08:47:39;;;;;;;28.27;11.88;;;;;;;17.86;100.00;101251.88;5076121;28;20059;-88
2022/09/05 08:50:30;;;;;;;24.00;11.38;;;;;;;18.25;100.00;101300.75;5069603;28;20413;-88
2022/09/05 08:53:06;;;;;;;26.35;10.40;;;;;;;18.26;100.00;101297.16;5063121;28;20117;-88
2022/09/05 08:56:13;;;;;;;36.10;13.38;;;;;;;17.99;100.00;101274.88;5080795;28;20051;-88
2022/09/05 08:58:58;;;;;;;26.27;11.98;;;;;;;18.23;100.00;101262.88;5085312;28;20134;-88
2022/09/05 09:02:19;;;;;;;23.52;10.52;;;;;;;18.52;100.00;101274.31;5066148;28;20043;-88
2022/09/05 09:05:19;;;;;;;23.17;9.43;;;;;;;18.14;100.00;101230.69;5070093;28;20405;-88
2022/09/05 09:07:55;;;;;;;25.10;9.45;;;;;;;18.60;100.00;101270.25;5094760;28;20075;-88
2022/09/05 09:10:47;;;;;;;20.73;8.20;;;;;;;18.57;100.00;101265.16;5095095;28;20050;-88
2022/09/05 09:13:29;;;;;;;18.13;7.65;;;;;;;18.70;100.00;101273.19;5077057;28;20052;-88
2022/09/05 09:16:03;;;;;;;24.95;9.70;;;;;;;18.33;100.00;101258.72;5077276;28;20054;-88
2022/09/05 09:18:50;;;;;;;27.10;9.82;;;;;;;18.63;100.00;101282.47;5077437;28;20044;-88
2022/09/05 09:21:24;;;;;;;29.00;11.65;;;;;;;18.51;100.00;101267.34;5070642;28;20162;-88
2022/09/05 09:24:06;;;;;;;24.45;9.85;;;;;;;18.44;100.00;101279.28;5077173;28;20406;-88
2022/09/05 09:26:56;;;;;;;24.77;9.38;;;;;;;18.17;100.00;101274.72;5076473;28;20080;-88
2022/09/05 09:29:24;;;;;;;24.35;11.27;;;;;;;17.90;100.00;101270.16;5077670;28;20052;-88
2022/09/05 09:31:51;;;;;;;23.70;10.02;;;;;;;18.16;100.00;101287.09;5078428;28;20047;-88
2022/09/05 09:34:31;;;;;;;23.52;11.02;;;;;;;17.97;100.00;101265.31;5060709;28;20060;-88
2022/09/05 09:37:20;;;;;;;20.05;8.93;;;;;;;18.11;100.00;101280.38;5065724;28;20056;-88
2022/09/05 09:40:42;;;;;;;22.67;9.43;;;;;;;17.92;100.00;101254.13;5087536;28;20059;-88
2022/09/05 09:44:00;;;;;;;26.83;8.73;;;;;;;18.19;100.00;101248.97;5089430;28;20048;-86
2022/09/05 09:46:44;;;;;;;24.17;9.27;;;;;;;18.49;100.00;101285.16;5091220;28;20047;-86
2022/09/05 09:49:35;;;;;;;20.77;9.18;;;;;;;18.43;100.00;101288.16;5095152;28;20074;-87
2022/09/05 09:52:11;;;;;;;30.50;11.07;;;;;;;18.47;100.00;101287.00;5080617;28;20092;-85
2022/09/05 09:55:22;;;;;;;31.35;11.93;;;;;;;18.54;100.00;101297.16;5071832;28;20056;-87
2022/09/05 09:57:58;;;;;;;23.45;8.70;;;;;;;18.63;100.00;101279.81;5017072;28;20063;-87
2022/09/05 10:00:36;;;;;;;16.45;6.60;;;;;;;18.73;100.00;101259.72;5100686;28;20048;-87
2022/09/05 10:03:22;;;;;;;27.77;10.70;;;;;;;18.83;100.00;101270.63;5064581;28;20050;-87
2022/09/05 10:06:43;;;;;;;29.00;9.60;;;;;;;18.73;100.00;101267.69;5113502;28;20485;-87
2022/09/05 10:09:58;;;;;;;27.60;10.60;;;;;;;18.74;100.00;101266.72;5078225;28;20066;-88
2022/09/05 10:13:16;;;;;;;22.88;8.48;;;;;;;18.82;100.00;101258.28;5084940;28;20048;-88
2022/09/05 10:16:22;;;;;;;34.58;11.15;;;;;;;18.91;100.00;101256.84;5098950;28;20079;-88
2022/09/05 10:19:28;;;;;;;29.70;9.52;;;;;;;18.97;100.00;101253.81;4993681;28;20046;-89
2022/09/05 10:22:43;;;;;;;27.45;9.60;;;;;;;18.91;100.00;101201.13;5083030;28;20062;-88
2022/09/05 10:25:49;;;;;;;31.55;11.32;;;;;;;19.02;100.00;101237.63;5080214;28;20126;-89
2022/09/05 10:28:26;;;;;;;26.13;9.45;;;;;;;19.02;100.00;101238.47;5079102;28;20047;-88
2022/09/05 10:31:07;;;;;;;24.52;8.00;;;;;;;19.15;100.00;101247.31;5081370;28;20113;-88
2022/09/05 10:34:18;;;;;;;26.25;9.05;;;;;;;19.15;100.00;101191.56;5079562;28;20063;-89
2022/09/05 10:37:10;;;;;;;25.85;8.93;;;;;;;19.41;100.00;101204.06;5089247;28;20054;-88
2022/09/05 10:39:42;;;;;;;23.73;8.57;;;;;;;18.86;100.00;101176.75;5066032;28;20123;-90
2022/09/05 10:42:14;;;;;;;31.90;10.57;;;;;;;18.75;100.00;101183.56;5066993;28;20486;-89
2022/09/05 10:44:52;;;;;;;30.65;11.10;;;;;;;18.89;100.00;101213.66;5064907;28;20055;-89
2022/09/05 10:47:40;;;;;;;26.50;9.07;;;;;;;19.15;100.00;101234.03;5071254;28;20160;-89
2022/09/05 10:50:46;;;;;;;29.40;9.48;;;;;;;18.93;100.00;101239.06;5078527;28;20047;-89
2022/09/05 10:53:43;;;;;;;25.33;10.15;;;;;;;18.87;100.00;101250.06;5035047;28;20044;-89
2022/09/05 10:56:14;;;;;;;23.35;8.20;;;;;;;18.89;100.00;101243.72;5080243;28;20161;-90
2022/09/05 10:59:00;;;;;;;28.77;10.88;;;;;;;19.03;100.00;101245.44;5076747;28;20052;-90
2022/09/05 11:02:04;;;;;;;24.77;8.45;;;;;;;19.24;100.00;101243.19;5085964;28;20044;-88
2022/09/05 11:05:14;;;;;;;30.17;8.40;;;;;;;19.20;100.00;101252.31;5086994;28;20047;-88
2022/09/05 11:08:00;;;;;;;22.55;9.15;;;;;;;19.28;100.00;101252.69;5072855;28;20138;-89
2022/09/05 11:10:27;;;;;;;25.02;8.85;;;;;;;19.16;100.00;101245.53;5077578;28;20542;-89
2022/09/05 11:13:09;;;;;;;20.80;7.78;;;;;;;19.43;100.00;101234.03;5068195;28;20139;-89
2022/09/05 11:15:44;;;;;;;34.53;10.47;;;;;;;19.01;100.00;101230.59;5081884;28;20124;-89
2022/09/05 11:18:55;;;;;;;26.00;8.40;;;;;;;19.29;100.00;101253.53;5086693;28;20048;-89
2022/09/05 11:21:39;;;;;;;21.45;8.43;;;;;;;19.04;100.00;101273.69;5084554;28;20494;-89
2022/09/05 11:24:32;;;;;;;33.78;11.18;;;;;;;19.02;100.00;101259.69;5084187;28;20139;-88
2022/09/05 11:27:17;;;;;;;30.25;8.45;;;;;;;19.16;100.00;101253.47;5060980;28;20056;-88
2022/09/05 11:30:15;;;;;;;30.73;8.52;;;;;;;19.05;100.00;101230.31;5065734;28;20044;-88
2022/09/05 11:33:16;;;;;;;25.30;9.32;;;;;;;18.77;100.00;101221.44;5074014;28;20052;-88
2022/09/05 11:36:14;;;;;;;25.52;9.43;;;;;;;18.62;100.00;101200.34;5086386;28;20074;-88
2022/09/05 11:39:14;;;;;;;30.30;9.15;;;;;;;18.86;100.00;101254.53;5071511;28;20045;-89
2022/09/05 11:42:16;;;;;;;33.83;10.52;;;;;;;18.80;100.00;101257.50;5085887;28;20074;-89
2022/09/05 11:45:20;;;;;;;26.90;8.55;;;;;;;18.85;100.00;101259.91;5083277;28;20381;-88
2022/09/05 11:48:05;;;;;;;30.20;8.88;;;;;;;18.57;100.00;101238.63;5097915;28;20504;-89
2022/09/05 11:50:56;;;;;;;41.25;10.77;;;;;;;18.49;100.00;101275.38;5091143;28;20051;-89
2022/09/05 11:53:25;;;;;;;34.08;10.27;;;;;;;18.70;100.00;101267.03;5064463;28;20048;-89
2022/09/05 11:56:11;;;;;;;39.40;10.93;;;;;;;18.56;100.00;101273.19;5076979;28;20440;-88
2022/09/05 11:58:56;;;;;;;34.08;11.77;;;;;;;18.55;100.00;101271.47;5077688;28;20790;-90
2022/09/05 12:01:57;;;;;;;32.00;9.57;;;;;;;18.60;100.00;101274.69;5095429;28;20048;-89
2022/09/05 12:04:53;;;;;;;37.38;11.82;;;;;;;18.78;100.00;101267.38;5071046;28;20040;-90
2022/09/05 12:07:59;;;;;;;35.00;10.38;;;;;;;18.59;100.00;101233.22;5071328;28;20052;-90
2022/09/05 12:10:50;;;;;;;40.28;10.60;;;;;;;18.88;100.00;101259.72;5077712;28;20070;-89
2022/09/05 12:13:41;;;;;;;32.53;9.63;;;;;;;18.86;100.00;101264.28;5063928;28;20048;-90
2022/09/05 12:16:31;;;;;;;32.53;10.18;;;;;;;18.87;100.00;101250.91;5067628;28;20055;-90
2022/09/05 12:19:10;;;;;;;37.22;10.90;;;;;;;19.05;100.00;101255.97;5060898;28;20052;-90
2022/09/05 12:22:27;;;;;;;35.55;11.02;;;;;;;19.06;100.00;101258.53;5084158;28;20409;-89
2022/09/05 12:24:56;;;;;;;31.20;9.30;;;;;;;19.08;100.00;101261.09;5044642;28;20048;-90
2022/09/05 12:27:48;;;;;;;37.40;11.30;;;;;;;18.86;100.00;101261.63;5064174;28;20040;-89
2022/09/05 12:30:37;;;;;;;30.10;8.52;;;;;;;18.96;100.00;101242.38;5078877;28;20044;-89
2022/09/05 12:33:30;;;;;;;28.65;8.48;;;;;;;19.05;100.00;101240.91;5079682;28;20058;-90
2022/09/05 12:36:38;;;;;;;32.20;9.50;;;;;;;18.99;100.00;101257.22;5065362;28;20048;-89
2022/09/05 12:39:38;;;;;;;31.85;9.40;;;;;;;18.99;100.00;101240.47;5079093;28;20479;-90
2022/09/05 12:42:52;;;;;;;38.63;10.98;;;;;;;19.04;100.00;101252.47;5093035;28;20422;-89
2022/09/05 12:45:58;;;;;;;30.48;9.90;;;;;;;18.96;100.00;101255.63;5087742;28;20058;-90
2022/09/05 12:48:39;;;;;;;39.30;9.55;;;;;;;18.85;100.00;101252.81;5064174;28;20130;-90